sensor_id;sensor_type;location;lat;lon;timestamp;P1;durP1;ratioP1;P2;durP2;ratioP2
74259;SDS011;62630;55.874;37.516;2022-12-24T00:02:22;5.57;;;3.75;;
74259;SDS011;62630;55.874;37.516;2022-12-24T00:04:48;5.18;;;3.53;;
74259;SDS011;62630;55.874;37.516;2022-12-24T00:07:13;6.90;;;4.32;;
74259;SDS011;62630;55.874;37.516;2022-12-24T00:09:39;5.70;;;3.92;;
74259;SDS011;62630;55.874;37.516;2022-12-24T00:12:04;5.05;;;3.67;;
74259;SDS011;62630;55.874;37.516;2022-12-24T00:14:30;6.60;;;3.60;;
74259;SDS011;62630;55.874;37.516;2022-12-24T00:16:56;5.70;;;3.72;;
74259;SDS011;62630;55.874;37.516;2022-12-24T00:19:21;5.30;;;3.65;;
74259;SDS011;62630;55.874;37.516;2022-12-24T00:21:47;7.03;;;3.80;;
74259;SDS011;62630;55.874;37.516;2022-12-24T00:24:12;5.28;;;3.75;;
74259;SDS011;62630;55.874;37.516;2022-12-24T00:26:38;8.07;;;4.10;;
74259;SDS011;62630;55.874;37.516;2022-12-24T00:29:03;7.50;;;4.95;;
74259;SDS011;62630;55.874;37.516;2022-12-24T00:31:29;7.03;;;4.20;;
74259;SDS011;62630;55.874;37.516;2022-12-24T00:33:55;5.47;;;3.95;;
74259;SDS011;62630;55.874;37.516;2022-12-24T00:36:21;5.53;;;3.65;;
74259;SDS011;62630;55.874;37.516;2022-12-24T00:38:46;5.05;;;4.28;;
74259;SDS011;62630;55.874;37.516;2022-12-24T00:41:12;5.68;;;3.90;;
74259;SDS011;62630;55.874;37.516;2022-12-24T00:43:54;6.07;;;3.78;;
74259;SDS011;62630;55.874;37.516;2022-12-24T00:46:21;5.75;;;4.00;;
74259;SDS011;62630;55.874;37.516;2022-12-24T00:48:48;6.32;;;4.72;;
74259;SDS011;62630;55.874;37.516;2022-12-24T00:51:14;6.32;;;3.92;;
74259;SDS011;62630;55.874;37.516;2022-12-24T00:53:40;4.82;;;3.80;;
74259;SDS011;62630;55.874;37.516;2022-12-24T00:56:06;6.40;;;3.95;;
74259;SDS011;62630;55.874;37.516;2022-12-24T00:58:32;7.45;;;4.28;;
74259;SDS011;62630;55.874;37.516;2022-12-24T01:00:58;6.85;;;3.97;;
74259;SDS011;62630;55.874;37.516;2022-12-24T01:03:23;7.70;;;5.72;;
74259;SDS011;62630;55.874;37.516;2022-12-24T01:06:10;6.47;;;4.57;;
74259;SDS011;62630;55.874;37.516;2022-12-24T01:08:41;5.35;;;4.50;;
74259;SDS011;62630;55.874;37.516;2022-12-24T01:11:07;5.90;;;4.18;;
74259;SDS011;62630;55.874;37.516;2022-12-24T01:13:34;7.28;;;4.90;;
74259;SDS011;62630;55.874;37.516;2022-12-24T01:16:00;6.78;;;4.95;;
74259;SDS011;62630;55.874;37.516;2022-12-24T01:18:26;7.75;;;5.13;;
74259;SDS011;62630;55.874;37.516;2022-12-24T01:20:59;7.82;;;5.15;;
74259;SDS011;62630;55.874;37.516;2022-12-24T01:23:26;8.60;;;5.68;;
74259;SDS011;62630;55.874;37.516;2022-12-24T01:25:52;8.68;;;5.78;;
74259;SDS011;62630;55.874;37.516;2022-12-24T01:28:18;8.77;;;5.45;;
74259;SDS011;62630;55.874;37.516;2022-12-24T01:30:44;10.80;;;7.47;;
74259;SDS011;62630;55.874;37.516;2022-12-24T01:33:10;10.32;;;7.20;;
74259;SDS011;62630;55.874;37.516;2022-12-24T01:35:42;11.38;;;6.97;;
74259;SDS011;62630;55.874;37.516;2022-12-24T01:38:08;9.70;;;5.85;;
74259;SDS011;62630;55.874;37.516;2022-12-24T01:40:36;10.07;;;6.75;;
74259;SDS011;62630;55.874;37.516;2022-12-24T01:43:20;13.00;;;6.78;;
74259;SDS011;62630;55.874;37.516;2022-12-24T01:50:53;10.73;;;6.00;;
74259;SDS011;62630;55.874;37.516;2022-12-24T01:53:25;11.45;;;6.68;;
74259;SDS011;62630;55.874;37.516;2022-12-24T01:55:51;12.95;;;8.13;;
74259;SDS011;62630;55.874;37.516;2022-12-24T01:58:18;13.52;;;8.13;;
74259;SDS011;62630;55.874;37.516;2022-12-24T02:00:45;11.52;;;6.65;;
74259;SDS011;62630;55.874;37.516;2022-12-24T02:03:11;14.13;;;7.20;;
74259;SDS011;62630;55.874;37.516;2022-12-24T02:05:41;12.10;;;6.63;;
74259;SDS011;62630;55.874;37.516;2022-12-24T02:08:11;13.32;;;7.38;;
74259;SDS011;62630;55.874;37.516;2022-12-24T02:10:37;13.93;;;7.15;;
74259;SDS011;62630;55.874;37.516;2022-12-24T02:13:03;13.00;;;8.15;;
74259;SDS011;62630;55.874;37.516;2022-12-24T02:15:55;14.90;;;7.50;;
74259;SDS011;62630;55.874;37.516;2022-12-24T02:21:29;11.95;;;7.32;;
74259;SDS011;62630;55.874;37.516;2022-12-24T02:32:00;14.45;;;7.90;;
74259;SDS011;62630;55.874;37.516;2022-12-24T02:34:46;12.15;;;8.00;;
74259;SDS011;62630;55.874;37.516;2022-12-24T02:37:24;14.18;;;8.00;;
74259;SDS011;62630;55.874;37.516;2022-12-24T02:42:40;15.60;;;8.23;;
74259;SDS011;62630;55.874;37.516;2022-12-24T02:45:08;17.23;;;8.18;;
74259;SDS011;62630;55.874;37.516;2022-12-24T02:47:38;16.52;;;8.15;;
74259;SDS011;62630;55.874;37.516;2022-12-24T02:50:08;14.20;;;7.72;;
74259;SDS011;62630;55.874;37.516;2022-12-24T02:52:41;15.82;;;7.97;;
74259;SDS011;62630;55.874;37.516;2022-12-24T03:00:18;14.68;;;7.68;;
74259;SDS011;62630;55.874;37.516;2022-12-24T03:08:12;14.75;;;7.72;;
74259;SDS011;62630;55.874;37.516;2022-12-24T03:10:51;13.80;;;7.72;;
74259;SDS011;62630;55.874;37.516;2022-12-24T03:13:21;11.90;;;7.30;;
74259;SDS011;62630;55.874;37.516;2022-12-24T03:15:49;12.75;;;7.07;;
74259;SDS011;62630;55.874;37.516;2022-12-24T03:18:17;11.88;;;7.35;;
74259;SDS011;62630;55.874;37.516;2022-12-24T03:20:49;14.32;;;7.63;;
74259;SDS011;62630;55.874;37.516;2022-12-24T03:23:21;14.82;;;7.95;;
74259;SDS011;62630;55.874;37.516;2022-12-24T03:25:47;13.27;;;7.13;;
74259;SDS011;62630;55.874;37.516;2022-12-24T03:28:14;15.13;;;7.45;;
74259;SDS011;62630;55.874;37.516;2022-12-24T03:30:43;12.32;;;6.82;;
74259;SDS011;62630;55.874;37.516;2022-12-24T03:33:13;12.93;;;7.72;;
74259;SDS011;62630;55.874;37.516;2022-12-24T03:35:39;13.02;;;7.35;;
74259;SDS011;62630;55.874;37.516;2022-12-24T03:38:05;14.70;;;7.90;;
74259;SDS011;62630;55.874;37.516;2022-12-24T03:40:30;13.52;;;8.30;;
74259;SDS011;62630;55.874;37.516;2022-12-24T03:42:56;12.73;;;7.93;;
74259;SDS011;62630;55.874;37.516;2022-12-24T03:45:22;14.18;;;7.75;;
74259;SDS011;62630;55.874;37.516;2022-12-24T03:47:47;11.45;;;7.78;;
74259;SDS011;62630;55.874;37.516;2022-12-24T03:50:13;13.50;;;6.97;;
74259;SDS011;62630;55.874;37.516;2022-12-24T03:52:39;15.25;;;8.40;;
74259;SDS011;62630;55.874;37.516;2022-12-24T03:55:04;11.23;;;7.13;;
74259;SDS011;62630;55.874;37.516;2022-12-24T03:57:30;12.90;;;8.07;;
74259;SDS011;62630;55.874;37.516;2022-12-24T03:59:55;12.32;;;7.82;;
74259;SDS011;62630;55.874;37.516;2022-12-24T04:02:21;11.95;;;7.35;;
74259;SDS011;62630;55.874;37.516;2022-12-24T04:04:46;14.13;;;8.13;;
74259;SDS011;62630;55.874;37.516;2022-12-24T04:07:12;14.35;;;9.00;;
74259;SDS011;62630;55.874;37.516;2022-12-24T04:09:38;16.30;;;9.00;;
74259;SDS011;62630;55.874;37.516;2022-12-24T04:12:04;16.92;;;8.43;;
74259;SDS011;62630;55.874;37.516;2022-12-24T04:14:31;15.25;;;8.65;;
74259;SDS011;62630;55.874;37.516;2022-12-24T04:16:56;14.63;;;8.43;;
74259;SDS011;62630;55.874;37.516;2022-12-24T04:19:22;14.95;;;8.18;;
74259;SDS011;62630;55.874;37.516;2022-12-24T04:21:47;16.42;;;8.93;;
74259;SDS011;62630;55.874;37.516;2022-12-24T04:24:13;13.15;;;8.57;;
74259;SDS011;62630;55.874;37.516;2022-12-24T04:26:38;16.50;;;9.25;;
74259;SDS011;62630;55.874;37.516;2022-12-24T04:29:04;18.63;;;8.93;;
74259;SDS011;62630;55.874;37.516;2022-12-24T04:31:29;16.45;;;8.82;;
74259;SDS011;62630;55.874;37.516;2022-12-24T04:33:55;16.27;;;9.82;;
74259;SDS011;62630;55.874;37.516;2022-12-24T04:36:20;19.00;;;9.05;;
74259;SDS011;62630;55.874;37.516;2022-12-24T04:38:47;13.73;;;7.82;;
74259;SDS011;62630;55.874;37.516;2022-12-24T04:41:14;13.27;;;8.38;;
74259;SDS011;62630;55.874;37.516;2022-12-24T04:43:42;13.07;;;7.90;;
74259;SDS011;62630;55.874;37.516;2022-12-24T04:48:35;11.88;;;7.03;;
74259;SDS011;62630;55.874;37.516;2022-12-24T04:51:02;13.40;;;8.32;;
74259;SDS011;62630;55.874;37.516;2022-12-24T04:53:28;13.15;;;7.70;;
74259;SDS011;62630;55.874;37.516;2022-12-24T04:55:54;13.07;;;7.57;;
74259;SDS011;62630;55.874;37.516;2022-12-24T04:58:20;13.10;;;7.15;;
74259;SDS011;62630;55.874;37.516;2022-12-24T05:00:46;15.55;;;8.10;;
74259;SDS011;62630;55.874;37.516;2022-12-24T05:03:11;13.65;;;7.35;;
74259;SDS011;62630;55.874;37.516;2022-12-24T05:05:37;12.57;;;8.32;;
74259;SDS011;62630;55.874;37.516;2022-12-24T05:08:02;12.50;;;7.88;;
74259;SDS011;62630;55.874;37.516;2022-12-24T05:10:28;16.02;;;8.60;;
74259;SDS011;62630;55.874;37.516;2022-12-24T05:12:53;14.30;;;8.30;;
74259;SDS011;62630;55.874;37.516;2022-12-24T05:15:19;17.83;;;8.63;;
74259;SDS011;62630;55.874;37.516;2022-12-24T05:17:45;15.45;;;9.02;;
74259;SDS011;62630;55.874;37.516;2022-12-24T05:20:10;14.30;;;8.35;;
74259;SDS011;62630;55.874;37.516;2022-12-24T05:22:36;16.17;;;8.80;;
74259;SDS011;62630;55.874;37.516;2022-12-24T05:25:20;17.95;;;8.73;;
74259;SDS011;62630;55.874;37.516;2022-12-24T05:28:04;19.52;;;8.90;;
74259;SDS011;62630;55.874;37.516;2022-12-24T05:30:29;17.83;;;8.50;;
74259;SDS011;62630;55.874;37.516;2022-12-24T05:32:55;15.05;;;8.73;;
74259;SDS011;62630;55.874;37.516;2022-12-24T05:35:21;19.50;;;9.85;;
74259;SDS011;62630;55.874;37.516;2022-12-24T05:37:46;14.35;;;8.30;;
74259;SDS011;62630;55.874;37.516;2022-12-24T05:40:12;16.40;;;8.45;;
74259;SDS011;62630;55.874;37.516;2022-12-24T05:42:37;17.05;;;9.25;;
74259;SDS011;62630;55.874;37.516;2022-12-24T05:45:03;14.13;;;8.43;;
74259;SDS011;62630;55.874;37.516;2022-12-24T05:47:28;17.23;;;9.20;;
74259;SDS011;62630;55.874;37.516;2022-12-24T05:49:54;16.10;;;9.88;;
74259;SDS011;62630;55.874;37.516;2022-12-24T05:52:20;17.80;;;9.38;;
74259;SDS011;62630;55.874;37.516;2022-12-24T05:54:48;16.23;;;9.18;;
74259;SDS011;62630;55.874;37.516;2022-12-24T05:57:14;20.70;;;9.88;;
74259;SDS011;62630;55.874;37.516;2022-12-24T05:59:40;16.90;;;9.40;;
74259;SDS011;62630;55.874;37.516;2022-12-24T06:02:06;17.02;;;9.18;;
74259;SDS011;62630;55.874;37.516;2022-12-24T06:04:31;13.93;;;8.77;;
74259;SDS011;62630;55.874;37.516;2022-12-24T06:06:57;17.23;;;9.48;;
74259;SDS011;62630;55.874;37.516;2022-12-24T06:09:22;16.45;;;8.73;;
74259;SDS011;62630;55.874;37.516;2022-12-24T06:11:48;20.55;;;9.63;;
74259;SDS011;62630;55.874;37.516;2022-12-24T06:14:13;19.88;;;9.52;;
74259;SDS011;62630;55.874;37.516;2022-12-24T06:16:39;16.85;;;9.77;;
74259;SDS011;62630;55.874;37.516;2022-12-24T06:19:04;17.38;;;8.77;;
74259;SDS011;62630;55.874;37.516;2022-12-24T06:21:30;14.98;;;8.88;;
74259;SDS011;62630;55.874;37.516;2022-12-24T06:23:55;14.35;;;8.00;;
74259;SDS011;62630;55.874;37.516;2022-12-24T06:26:21;17.58;;;8.95;;
74259;SDS011;62630;55.874;37.516;2022-12-24T06:28:47;16.85;;;8.30;;
74259;SDS011;62630;55.874;37.516;2022-12-24T06:31:14;16.48;;;8.15;;
74259;SDS011;62630;55.874;37.516;2022-12-24T06:33:42;14.93;;;8.40;;
74259;SDS011;62630;55.874;37.516;2022-12-24T06:36:08;13.68;;;7.82;;
74259;SDS011;62630;55.874;37.516;2022-12-24T06:38:37;15.07;;;8.77;;
74259;SDS011;62630;55.874;37.516;2022-12-24T06:41:06;16.35;;;7.80;;
74259;SDS011;62630;55.874;37.516;2022-12-24T06:43:32;15.13;;;7.32;;
74259;SDS011;62630;55.874;37.516;2022-12-24T06:45:59;15.05;;;7.18;;
74259;SDS011;62630;55.874;37.516;2022-12-24T06:48:25;14.05;;;7.35;;
74259;SDS011;62630;55.874;37.516;2022-12-24T06:50:51;13.88;;;7.60;;
74259;SDS011;62630;55.874;37.516;2022-12-24T06:53:16;16.40;;;8.43;;
74259;SDS011;62630;55.874;37.516;2022-12-24T06:55:42;14.90;;;7.53;;
74259;SDS011;62630;55.874;37.516;2022-12-24T06:58:07;12.20;;;7.55;;
74259;SDS011;62630;55.874;37.516;2022-12-24T07:00:33;13.93;;;7.40;;
74259;SDS011;62630;55.874;37.516;2022-12-24T07:02:58;14.43;;;7.35;;
74259;SDS011;62630;55.874;37.516;2022-12-24T07:05:24;15.68;;;8.05;;
74259;SDS011;62630;55.874;37.516;2022-12-24T07:07:50;14.38;;;7.10;;
74259;SDS011;62630;55.874;37.516;2022-12-24T07:10:16;12.38;;;7.25;;
74259;SDS011;62630;55.874;37.516;2022-12-24T07:12:46;12.80;;;6.60;;
74259;SDS011;62630;55.874;37.516;2022-12-24T07:15:15;12.77;;;6.70;;
74259;SDS011;62630;55.874;37.516;2022-12-24T07:17:41;14.27;;;7.22;;
74259;SDS011;62630;55.874;37.516;2022-12-24T07:20:08;12.82;;;6.88;;
74259;SDS011;62630;55.874;37.516;2022-12-24T07:22:36;11.00;;;7.00;;
74259;SDS011;62630;55.874;37.516;2022-12-24T07:25:01;13.90;;;8.05;;
74259;SDS011;62630;55.874;37.516;2022-12-24T07:27:27;14.20;;;7.60;;
74259;SDS011;62630;55.874;37.516;2022-12-24T07:29:52;18.40;;;7.80;;
74259;SDS011;62630;55.874;37.516;2022-12-24T07:32:18;12.40;;;7.03;;
74259;SDS011;62630;55.874;37.516;2022-12-24T07:34:44;14.07;;;6.97;;
74259;SDS011;62630;55.874;37.516;2022-12-24T07:37:10;11.18;;;6.32;;
74259;SDS011;62630;55.874;37.516;2022-12-24T07:39:35;12.70;;;6.28;;
74259;SDS011;62630;55.874;37.516;2022-12-24T07:42:01;13.88;;;7.53;;
74259;SDS011;62630;55.874;37.516;2022-12-24T07:46:54;14.60;;;7.18;;
74259;SDS011;62630;55.874;37.516;2022-12-24T07:49:19;14.43;;;8.05;;
74259;SDS011;62630;55.874;37.516;2022-12-24T07:51:45;14.88;;;7.68;;
74259;SDS011;62630;55.874;37.516;2022-12-24T07:54:10;14.48;;;7.75;;
74259;SDS011;62630;55.874;37.516;2022-12-24T07:56:36;16.00;;;7.45;;
74259;SDS011;62630;55.874;37.516;2022-12-24T07:59:02;11.60;;;7.22;;
74259;SDS011;62630;55.874;37.516;2022-12-24T08:01:27;12.77;;;6.30;;
74259;SDS011;62630;55.874;37.516;2022-12-24T08:03:53;10.57;;;6.05;;
74259;SDS011;62630;55.874;37.516;2022-12-24T08:06:19;13.38;;;6.18;;
74259;SDS011;62630;55.874;37.516;2022-12-24T08:08:45;12.70;;;6.43;;
74259;SDS011;62630;55.874;37.516;2022-12-24T08:11:13;9.30;;;5.75;;
74259;SDS011;62630;55.874;37.516;2022-12-24T08:13:39;10.48;;;6.25;;
74259;SDS011;62630;55.874;37.516;2022-12-24T08:16:05;11.20;;;6.50;;
74259;SDS011;62630;55.874;37.516;2022-12-24T08:18:31;14.43;;;6.07;;
74259;SDS011;62630;55.874;37.516;2022-12-24T08:20:56;11.57;;;6.45;;
74259;SDS011;62630;55.874;37.516;2022-12-24T08:23:22;11.27;;;6.10;;
74259;SDS011;62630;55.874;37.516;2022-12-24T08:25:49;10.55;;;5.53;;
74259;SDS011;62630;55.874;37.516;2022-12-24T08:28:18;11.50;;;6.03;;
74259;SDS011;62630;55.874;37.516;2022-12-24T08:30:46;9.88;;;6.38;;
74259;SDS011;62630;55.874;37.516;2022-12-24T08:33:13;15.18;;;6.63;;
74259;SDS011;62630;55.874;37.516;2022-12-24T08:35:39;11.38;;;6.18;;
74259;SDS011;62630;55.874;37.516;2022-12-24T08:38:04;10.82;;;6.10;;
74259;SDS011;62630;55.874;37.516;2022-12-24T08:40:30;10.23;;;5.38;;
74259;SDS011;62630;55.874;37.516;2022-12-24T08:42:56;8.50;;;5.07;;
74259;SDS011;62630;55.874;37.516;2022-12-24T08:45:21;9.90;;;5.00;;
74259;SDS011;62630;55.874;37.516;2022-12-24T08:47:47;10.88;;;5.60;;
74259;SDS011;62630;55.874;37.516;2022-12-24T08:50:12;12.93;;;5.32;;
74259;SDS011;62630;55.874;37.516;2022-12-24T08:52:41;9.60;;;4.82;;
74259;SDS011;62630;55.874;37.516;2022-12-24T08:55:09;10.85;;;5.35;;
74259;SDS011;62630;55.874;37.516;2022-12-24T08:57:35;9.88;;;5.15;;
74259;SDS011;62630;55.874;37.516;2022-12-24T09:00:01;8.07;;;5.18;;
74259;SDS011;62630;55.874;37.516;2022-12-24T09:02:28;11.30;;;5.32;;
74259;SDS011;62630;55.874;37.516;2022-12-24T09:04:54;8.00;;;5.00;;
74259;SDS011;62630;55.874;37.516;2022-12-24T09:07:20;10.02;;;4.90;;
74259;SDS011;62630;55.874;37.516;2022-12-24T09:09:46;9.02;;;5.20;;
74259;SDS011;62630;55.874;37.516;2022-12-24T09:12:15;9.48;;;5.18;;
74259;SDS011;62630;55.874;37.516;2022-12-24T09:14:44;7.07;;;4.45;;
74259;SDS011;62630;55.874;37.516;2022-12-24T09:17:10;9.25;;;5.55;;
74259;SDS011;62630;55.874;37.516;2022-12-24T09:19:38;6.32;;;4.28;;
74259;SDS011;62630;55.874;37.516;2022-12-24T09:22:04;9.80;;;5.32;;
74259;SDS011;62630;55.874;37.516;2022-12-24T09:24:33;8.88;;;5.15;;
74259;SDS011;62630;55.874;37.516;2022-12-24T09:27:00;7.78;;;5.15;;
74259;SDS011;62630;55.874;37.516;2022-12-24T09:31:59;8.18;;;4.78;;
74259;SDS011;62630;55.874;37.516;2022-12-24T09:34:25;8.40;;;5.07;;
74259;SDS011;62630;55.874;37.516;2022-12-24T09:36:51;5.82;;;3.83;;
74259;SDS011;62630;55.874;37.516;2022-12-24T09:39:18;7.07;;;4.95;;
74259;SDS011;62630;55.874;37.516;2022-12-24T09:45:17;7.75;;;4.32;;
74259;SDS011;62630;55.874;37.516;2022-12-24T09:47:49;8.75;;;4.10;;
74259;SDS011;62630;55.874;37.516;2022-12-24T09:53:04;11.27;;;4.45;;
74259;SDS011;62630;55.874;37.516;2022-12-24T09:55:58;6.60;;;3.78;;
74259;SDS011;62630;55.874;37.516;2022-12-24T09:58:41;5.95;;;3.58;;
74259;SDS011;62630;55.874;37.516;2022-12-24T10:01:14;6.95;;;3.90;;
74259;SDS011;62630;55.874;37.516;2022-12-24T10:03:42;6.88;;;4.32;;
74259;SDS011;62630;55.874;37.516;2022-12-24T10:06:10;8.32;;;4.20;;
74259;SDS011;62630;55.874;37.516;2022-12-24T10:13:46;10.02;;;4.30;;
74259;SDS011;62630;55.874;37.516;2022-12-24T10:16:25;6.00;;;3.88;;
74259;SDS011;62630;55.874;37.516;2022-12-24T10:19:02;6.45;;;3.85;;
74259;SDS011;62630;55.874;37.516;2022-12-24T10:24:11;6.15;;;3.35;;
74259;SDS011;62630;55.874;37.516;2022-12-24T10:26:43;10.63;;;4.90;;
74259;SDS011;62630;55.874;37.516;2022-12-24T10:29:16;5.85;;;4.05;;
74259;SDS011;62630;55.874;37.516;2022-12-24T10:34:32;7.35;;;4.47;;
74259;SDS011;62630;55.874;37.516;2022-12-24T10:37:15;7.72;;;4.30;;
74259;SDS011;62630;55.874;37.516;2022-12-24T10:39:44;8.25;;;4.03;;
74259;SDS011;62630;55.874;37.516;2022-12-24T10:42:09;7.88;;;4.70;;
74259;SDS011;62630;55.874;37.516;2022-12-24T10:44:37;6.97;;;4.43;;
74259;SDS011;62630;55.874;37.516;2022-12-24T10:47:03;8.82;;;4.53;;
74259;SDS011;62630;55.874;37.516;2022-12-24T10:52:15;10.27;;;4.35;;
74259;SDS011;62630;55.874;37.516;2022-12-24T10:57:35;8.98;;;5.45;;
74259;SDS011;62630;55.874;37.516;2022-12-24T11:00:02;6.95;;;4.47;;
74259;SDS011;62630;55.874;37.516;2022-12-24T11:02:34;6.78;;;3.90;;
74259;SDS011;62630;55.874;37.516;2022-12-24T11:05:02;7.00;;;3.80;;
74259;SDS011;62630;55.874;37.516;2022-12-24T11:07:30;5.45;;;3.38;;
74259;SDS011;62630;55.874;37.516;2022-12-24T11:09:57;6.68;;;4.32;;
74259;SDS011;62630;55.874;37.516;2022-12-24T11:12:30;6.75;;;3.85;;
74259;SDS011;62630;55.874;37.516;2022-12-24T11:15:03;6.55;;;3.22;;
74259;SDS011;62630;55.874;37.516;2022-12-24T11:17:29;5.38;;;3.38;;
74259;SDS011;62630;55.874;37.516;2022-12-24T11:19:55;6.97;;;3.42;;
74259;SDS011;62630;55.874;37.516;2022-12-24T11:22:26;4.80;;;2.80;;
74259;SDS011;62630;55.874;37.516;2022-12-24T11:27:41;3.25;;;2.50;;
74259;SDS011;62630;55.874;37.516;2022-12-24T11:32:53;8.23;;;2.85;;
74259;SDS011;62630;55.874;37.516;2022-12-24T11:35:32;4.85;;;3.00;;
74259;SDS011;62630;55.874;37.516;2022-12-24T11:43:26;3.45;;;2.47;;
74259;SDS011;62630;55.874;37.516;2022-12-24T11:46:13;4.20;;;2.20;;
74259;SDS011;62630;55.874;37.516;2022-12-24T11:48:45;4.97;;;3.33;;
74259;SDS011;62630;55.874;37.516;2022-12-24T11:51:18;4.75;;;2.78;;
74259;SDS011;62630;55.874;37.516;2022-12-24T11:56:47;4.75;;;2.72;;
74259;SDS011;62630;55.874;37.516;2022-12-24T12:01:57;4.00;;;2.42;;
74259;SDS011;62630;55.874;37.516;2022-12-24T12:04:34;5.07;;;2.85;;
74259;SDS011;62630;55.874;37.516;2022-12-24T12:12:26;3.97;;;2.90;;
74259;SDS011;62630;55.874;37.516;2022-12-24T12:18:01;4.53;;;2.90;;
74259;SDS011;62630;55.874;37.516;2022-12-24T12:20:33;9.70;;;2.63;;
74259;SDS011;62630;55.874;37.516;2022-12-24T12:28:21;4.18;;;2.83;;
74259;SDS011;62630;55.874;37.516;2022-12-24T12:31:51;3.80;;;2.72;;
74259;SDS011;62630;55.874;37.516;2022-12-24T12:33:56;5.13;;;3.00;;
74259;SDS011;62630;55.874;37.516;2022-12-24T12:36:33;3.70;;;2.85;;
74259;SDS011;62630;55.874;37.516;2022-12-24T12:39:08;7.32;;;3.08;;
74259;SDS011;62630;55.874;37.516;2022-12-24T12:57:49;6.15;;;3.08;;
74259;SDS011;62630;55.874;37.516;2022-12-24T13:00:33;9.38;;;3.05;;
74259;SDS011;62630;55.874;37.516;2022-12-24T13:12:34;5.95;;;3.33;;
74259;SDS011;62630;55.874;37.516;2022-12-24T13:14:40;5.53;;;3.50;;
74259;SDS011;62630;55.874;37.516;2022-12-24T13:20:13;5.55;;;2.90;;
74259;SDS011;62630;55.874;37.516;2022-12-24T13:22:48;7.72;;;2.95;;
74259;SDS011;62630;55.874;37.516;2022-12-24T13:25:35;6.50;;;3.40;;
74259;SDS011;62630;55.874;37.516;2022-12-24T13:30:47;4.20;;;2.85;;
74259;SDS011;62630;55.874;37.516;2022-12-24T13:44:15;4.53;;;2.75;;
74259;SDS011;62630;55.874;37.516;2022-12-24T13:47:02;5.35;;;3.50;;
74259;SDS011;62630;55.874;37.516;2022-12-24T13:49:41;3.90;;;2.60;;
74259;SDS011;62630;55.874;37.516;2022-12-24T13:54:37;4.30;;;3.10;;
74259;SDS011;62630;55.874;37.516;2022-12-24T13:57:22;6.88;;;3.22;;
74259;SDS011;62630;55.874;37.516;2022-12-24T13:59:52;5.50;;;3.58;;
74259;SDS011;62630;55.874;37.516;2022-12-24T14:02:23;4.25;;;2.90;;
74259;SDS011;62630;55.874;37.516;2022-12-24T14:04:49;4.43;;;3.05;;
74259;SDS011;62630;55.874;37.516;2022-12-24T14:07:16;5.07;;;3.22;;
74259;SDS011;62630;55.874;37.516;2022-12-24T14:09:47;4.47;;;2.70;;
74259;SDS011;62630;55.874;37.516;2022-12-24T14:12:27;4.78;;;2.83;;
74259;SDS011;62630;55.874;37.516;2022-12-24T14:14:54;9.57;;;3.38;;
74259;SDS011;62630;55.874;37.516;2022-12-24T14:17:21;3.78;;;2.78;;
74259;SDS011;62630;55.874;37.516;2022-12-24T14:19:56;3.50;;;2.70;;
74259;SDS011;62630;55.874;37.516;2022-12-24T14:25:03;6.20;;;3.20;;
74259;SDS011;62630;55.874;37.516;2022-12-24T14:27:48;4.60;;;2.90;;
74259;SDS011;62630;55.874;37.516;2022-12-24T14:33:29;7.10;;;3.72;;
74259;SDS011;62630;55.874;37.516;2022-12-24T14:35:56;7.68;;;4.47;;
74259;SDS011;62630;55.874;37.516;2022-12-24T14:38:26;4.63;;;3.22;;
74259;SDS011;62630;55.874;37.516;2022-12-24T14:58:15;4.50;;;3.45;;
74259;SDS011;62630;55.874;37.516;2022-12-24T15:00:47;4.95;;;3.50;;
74259;SDS011;62630;55.874;37.516;2022-12-24T15:03:17;4.97;;;3.70;;
74259;SDS011;62630;55.874;37.516;2022-12-24T15:05:45;4.57;;;2.90;;
74259;SDS011;62630;55.874;37.516;2022-12-24T15:08:25;4.28;;;3.20;;
74259;SDS011;62630;55.874;37.516;2022-12-24T15:11:02;5.40;;;3.03;;
74259;SDS011;62630;55.874;37.516;2022-12-24T15:13:40;7.57;;;4.07;;
74259;SDS011;62630;55.874;37.516;2022-12-24T15:16:09;6.20;;;3.75;;
74259;SDS011;62630;55.874;37.516;2022-12-24T15:18:38;4.55;;;3.33;;
74259;SDS011;62630;55.874;37.516;2022-12-24T15:21:13;6.15;;;3.58;;
74259;SDS011;62630;55.874;37.516;2022-12-24T15:23:46;5.47;;;3.80;;
74259;SDS011;62630;55.874;37.516;2022-12-24T15:28:47;4.80;;;3.60;;
74259;SDS011;62630;55.874;37.516;2022-12-24T15:31:14;5.18;;;3.35;;
74259;SDS011;62630;55.874;37.516;2022-12-24T15:33:49;5.97;;;4.20;;
74259;SDS011;62630;55.874;37.516;2022-12-24T15:36:34;7.25;;;4.38;;
74259;SDS011;62630;55.874;37.516;2022-12-24T15:39:02;6.30;;;3.97;;
74259;SDS011;62630;55.874;37.516;2022-12-24T15:41:40;4.22;;;3.25;;
74259;SDS011;62630;55.874;37.516;2022-12-24T15:44:32;6.05;;;4.18;;
74259;SDS011;62630;55.874;37.516;2022-12-24T15:47:01;7.22;;;3.80;;
74259;SDS011;62630;55.874;37.516;2022-12-24T15:49:29;5.70;;;3.83;;
74259;SDS011;62630;55.874;37.516;2022-12-24T15:52:03;5.35;;;3.53;;
74259;SDS011;62630;55.874;37.516;2022-12-24T15:54:30;8.18;;;3.97;;
74259;SDS011;62630;55.874;37.516;2022-12-24T15:56:56;5.47;;;3.35;;
74259;SDS011;62630;55.874;37.516;2022-12-24T15:59:27;5.05;;;3.20;;
74259;SDS011;62630;55.874;37.516;2022-12-24T16:01:55;5.30;;;3.60;;
74259;SDS011;62630;55.874;37.516;2022-12-24T16:04:41;4.70;;;3.53;;
74259;SDS011;62630;55.874;37.516;2022-12-24T16:07:09;4.93;;;3.20;;
74259;SDS011;62630;55.874;37.516;2022-12-24T16:09:47;4.88;;;3.30;;
74259;SDS011;62630;55.874;37.516;2022-12-24T16:14:44;5.03;;;3.40;;
74259;SDS011;62630;55.874;37.516;2022-12-24T16:17:15;8.25;;;3.40;;
74259;SDS011;62630;55.874;37.516;2022-12-24T16:19:48;7.32;;;4.22;;
74259;SDS011;62630;55.874;37.516;2022-12-24T16:22:16;6.07;;;3.53;;
74259;SDS011;62630;55.874;37.516;2022-12-24T16:28:00;6.10;;;3.80;;
74259;SDS011;62630;55.874;37.516;2022-12-24T16:30:26;7.05;;;3.88;;
74259;SDS011;62630;55.874;37.516;2022-12-24T16:32:52;4.45;;;3.28;;
74259;SDS011;62630;55.874;37.516;2022-12-24T16:37:46;6.18;;;3.22;;
74259;SDS011;62630;55.874;37.516;2022-12-24T16:40:15;4.03;;;3.05;;
74259;SDS011;62630;55.874;37.516;2022-12-24T16:42:40;4.78;;;3.00;;
74259;SDS011;62630;55.874;37.516;2022-12-24T16:45:24;4.10;;;3.05;;
74259;SDS011;62630;55.874;37.516;2022-12-24T16:50:20;5.63;;;3.97;;
74259;SDS011;62630;55.874;37.516;2022-12-24T16:52:46;4.22;;;3.47;;
74259;SDS011;62630;55.874;37.516;2022-12-24T16:55:12;4.57;;;3.17;;
74259;SDS011;62630;55.874;37.516;2022-12-24T16:57:38;4.53;;;2.75;;
74259;SDS011;62630;55.874;37.516;2022-12-24T17:00:06;4.90;;;3.03;;
74259;SDS011;62630;55.874;37.516;2022-12-24T17:02:33;3.15;;;2.55;;
74259;SDS011;62630;55.874;37.516;2022-12-24T17:04:58;3.90;;;3.00;;
74259;SDS011;62630;55.874;37.516;2022-12-24T17:07:24;3.00;;;2.08;;
74259;SDS011;62630;55.874;37.516;2022-12-24T17:09:49;3.15;;;2.10;;
74259;SDS011;62630;55.874;37.516;2022-12-24T17:12:17;2.42;;;1.90;;
74259;SDS011;62630;55.874;37.516;2022-12-24T17:14:43;2.75;;;1.77;;
74259;SDS011;62630;55.874;37.516;2022-12-24T17:17:20;4.30;;;2.17;;
74259;SDS011;62630;55.874;37.516;2022-12-24T17:19:48;3.15;;;2.03;;
74259;SDS011;62630;55.874;37.516;2022-12-24T17:22:14;5.72;;;2.40;;
74259;SDS011;62630;55.874;37.516;2022-12-24T17:24:39;8.02;;;4.07;;
74259;SDS011;62630;55.874;37.516;2022-12-24T17:27:05;5.63;;;2.75;;
74259;SDS011;62630;55.874;37.516;2022-12-24T17:29:30;4.93;;;2.80;;